| Date | Time | Temp. (oF) | Dew Point (oF) | Rel. Hum. (%) | Press. (in.) | Wind Dir. (deg.) | Wind Speed (mph) | Hourly Rainfall (i n.) |
|
|---|---|---|---|---|---|---|---|---|---|
| 1 | 04/26 | 24:00 | 45 | 27 | 51 | 30.15 | 290 | 0 | 0.00 |
| 2 | 04/25 | 23:00 | 47 | 28 | 48 | 30.17 | 290 | 1 | 0.00 |
| 3 | 04/25 | 22:00 | 49 | 30 | 48 | 30.18 | 290 | 0 | 0.00 |
| 4 | 04/25 | 21:00 | 53 | 29 | 40 | 30.21 | 290 | 0 | 0.00 |
| 5 | 04/25 | 20:00 | 57 | 26 | 31 | 30.23 | 290 | 1 | 0.00 |
| 6 | 04/25 | 19:00 | 60 | 24 | 26 | 30.24 | 300 | 2 | 0.00 |
| 7 | 04/25 | 18:00 | 64 | 27 | 25 | 30.25 | 290 | 6 | 0.00 |
| 8 | 04/25 | 17:00 | 64 | 27 | 25 | 30.27 | 280 | 9 | 0.00 |
| 9 | 04/25 | 16:00 | 63 | 24 | 23 | 30.27 | 10 | 7 | 0.00 |
| 10 | 04/25 | 15:00 | 63 | 24 | 23 | 30.30 | 330 | 6 | 0.00 |
| 11 | 04/25 | 14:00 | 64 | 29 | 27 | 30.31 | 270 | 10 | 0.00 |
| 12 | 04/25 | 13:00 | 63 | 26 | 25 | 30.32 | 330 | 7 | 0.00 |
| 13 | 04/25 | 12:00 | 62 | 27 | 27 | 30.32 | 290 | 2 | 0.00 |
| 14 | 04/25 | 11:00 | 57 | 29 | 35 | 30.35 | 310 | 2 | 0.00 |
| 15 | 04/25 | 10:00 | 45 | 25 | 46 | 30.35 | 40 | 4 | 0.00 |
| 16 | 04/25 | 09:00 | 40 | 21 | 48 | 30.33 | 10 | 2 | 0.00 |
| 17 | 04/25 | 08:00 | 35 | 28 | 76 | 30.35 | 10 | 0 | 0.00 |
| 18 | 04/25 | 07:00 | 32 | 23 | 72 | 30.33 | 10 | 1 | 0.00 |
| 19 | 04/25 | 06:00 | 33 | 23 | 67 | 30.29 | 10 | 0 | 0.00 |
| 20 | 04/25 | 05:00 | 34 | 23 | 66 | 30.29 | 10 | 1 | 0.00 |
| 21 | 04/25 | 04:00 | 36 | 22 | 58 | 30.29 | 10 | 0 | 0.00 |
| 22 | 04/25 | 03:00 | 38 | 23 | 55 | 30.30 | 10 | 0 | 0.00 |
| 23 | 04/25 | 02:00 | 39 | 22 | 51 | 30.31 | 10 | 1 | 0.00 |
| 24 | 04/25 | 01:00 | 41 | 24 | 52 | 30.32 | 20 | 1 | 0.00 |